Time;durP1;ratioP1;P1;durP2;ratioP2;P2;SDS_P1;SDS_P2;PMS_P1;PMS_P2;Temp;Humidity;BMP_temperature;BMP_pressure;BME280_temperature;BME280_humidity;BME280_pressure;Samples;Min_cycle;Max_cycle;Signal;HPM_P1;HPM_P2
2022/03/19 00:01:23;;;;;;;13.07;5.30;;;5.80;91.10;;;5.73;66.24;104074.66;4974761;28;20215;-67
2022/03/19 00:03:52;;;;;;;13.55;6.28;;;5.80;90.00;;;5.61;66.95;104079.84;4975062;28;20206;-67
2022/03/19 00:06:21;;;;;;;15.95;6.20;;;5.70;89.60;;;5.63;66.59;104079.72;4974959;28;20199;-66
2022/03/19 00:08:50;;;;;;;14.15;5.38;;;5.70;87.70;;;5.65;66.19;104067.94;4975667;28;20606;-66
2022/03/19 00:11:20;;;;;;;18.60;7.03;;;5.70;84.50;;;5.57;66.00;104072.88;4974959;28;20290;-66
2022/03/19 00:13:50;;;;;;;11.63;5.88;;;5.70;83.30;;;5.47;66.19;104069.03;4974685;28;20584;-67
2022/03/19 00:16:21;;;;;;;18.45;5.82;;;5.60;84.00;;;5.43;66.50;104067.47;4974865;28;20194;-67
2022/03/19 00:18:51;;;;;;;16.33;6.53;;;5.50;84.20;;;5.42;66.28;104068.44;4974335;28;20180;-67
2022/03/19 00:21:20;;;;;;;14.13;6.53;;;5.50;85.20;;;5.42;66.18;104071.13;4974336;28;20633;-67
2022/03/19 00:23:49;;;;;;;14.63;5.50;;;5.50;84.60;;;5.39;66.16;104070.44;4974670;28;20294;-66
2022/03/19 00:26:19;;;;;;;13.02;6.25;;;5.50;84.50;;;5.39;66.34;104073.13;4974684;28;20752;-67
2022/03/19 00:28:48;;;;;;;25.33;6.25;;;5.40;84.00;;;5.33;66.31;104066.28;4974442;28;20188;-67
2022/03/19 00:31:19;;;;;;;12.52;5.72;;;5.40;83.70;;;5.22;66.30;104068.78;4957369;28;20250;-68
2022/03/19 00:33:48;;;;;;;9.48;5.80;;;5.40;82.70;;;5.17;66.79;104070.88;4957959;28;20191;-67
2022/03/19 00:36:17;;;;;;;14.07;5.05;;;5.30;84.50;;;5.09;66.69;104067.75;4975008;28;20730;-67
2022/03/19 00:38:46;;;;;;;15.23;5.63;;;5.20;86.80;;;5.13;67.17;104069.31;4975138;28;20184;-67
2022/03/19 00:41:15;;;;;;;12.60;5.97;;;5.20;88.80;;;5.04;67.25;104065.31;4974707;28;20246;-67
2022/03/19 00:43:51;;;;;;;13.23;5.30;;;5.20;90.20;;;4.98;67.55;104062.16;4974699;28;20187;-67
2022/03/19 00:46:22;;;;;;;16.60;5.68;;;5.10;91.40;;;4.96;67.76;104064.91;4974955;28;20179;-67
2022/03/19 00:48:51;;;;;;;16.52;5.32;;;5.10;92.50;;;4.93;67.73;104059.75;4974900;28;20234;-67
2022/03/19 00:51:20;;;;;;;12.70;6.35;;;5.00;93.30;;;4.93;67.74;104061.56;4974771;28;20211;-68
2022/03/19 00:53:49;;;;;;;16.50;7.07;;;5.00;93.50;;;4.90;67.92;104057.22;4974596;28;20904;-67
2022/03/19 00:56:18;;;;;;;8.90;5.57;;;5.00;93.50;;;4.80;68.30;104066.75;4974863;28;20569;-67
2022/03/19 00:58:48;;;;;;;15.70;6.55;;;5.00;93.70;;;4.70;68.35;104063.72;4974446;28;20215;-68
2022/03/19 01:01:17;;;;;;;16.10;6.30;;;4.90;94.90;;;4.60;68.56;104065.19;4973859;28;20235;-67
2022/03/19 01:03:47;;;;;;;15.98;6.38;;;4.80;95.20;;;4.63;68.93;104062.34;4974040;28;20198;-67
2022/03/19 01:06:16;;;;;;;12.23;5.90;;;4.80;96.60;;;4.56;69.03;104060.94;4973842;28;20274;-67
2022/03/19 01:08:45;;;;;;;15.20;5.97;;;4.70;97.10;;;4.47;69.60;104053.41;4956572;28;20250;-66
2022/03/19 01:11:14;;;;;;;13.25;6.50;;;4.70;98.30;;;4.53;69.33;104061.13;4973782;28;20277;-67
2022/03/19 01:13:43;;;;;;;10.30;6.35;;;4.70;98.80;;;4.55;69.08;104056.53;4974292;28;20187;-67
2022/03/19 01:16:12;;;;;;;15.77;6.38;;;4.70;98.20;;;4.51;69.10;104049.63;4974168;28;20553;-67
2022/03/19 01:18:41;;;;;;;12.02;5.75;;;4.70;98.30;;;4.46;69.20;104040.97;4974002;28;20167;-67
2022/03/19 01:21:12;;;;;;;14.80;6.05;;;4.60;99.10;;;4.49;69.31;104051.53;4973647;28;20222;-67
2022/03/19 01:23:41;;;;;;;9.15;5.25;;;4.60;99.30;;;4.45;69.38;104046.44;4973942;28;20175;-67
2022/03/19 01:26:10;;;;;;;21.15;5.47;;;4.60;99.90;;;4.52;69.08;104051.34;4973815;28;20200;-67
2022/03/19 01:28:39;;;;;;;16.13;7.53;;;4.60;99.90;;;4.33;69.87;104038.09;4973467;28;20251;-67
2022/03/19 01:31:08;;;;;;;15.27;5.35;;;4.50;99.90;;;4.32;69.77;104031.00;4974466;28;20231;-67
2022/03/19 01:33:37;;;;;;;14.32;5.93;;;4.50;99.90;;;4.25;70.04;104032.31;4977841;28;20191;-67
2022/03/19 01:36:06;;;;;;;14.40;6.78;;;4.40;99.90;;;4.24;69.99;104041.31;4977715;28;20188;-67
2022/03/19 01:38:37;;;;;;;17.92;6.15;;;4.40;99.90;;;4.18;70.47;104030.03;4977974;28;20699;-67
2022/03/19 01:41:06;;;;;;;13.15;5.75;;;4.30;99.90;;;4.16;70.38;104026.59;4977720;28;20583;-67
2022/03/19 01:43:39;;;;;;;19.52;6.88;;;4.30;99.90;;;4.04;70.77;104021.88;4960189;28;20234;-67
2022/03/19 01:46:08;;;;;;;15.85;7.18;;;4.30;99.90;;;4.09;70.62;104017.16;4977676;28;20633;-67
2022/03/19 01:48:37;;;;;;;14.73;6.90;;;4.20;99.90;;;4.05;70.81;104023.63;4977268;28;20259;-67
2022/03/19 01:51:06;;;;;;;15.52;7.50;;;4.20;99.90;;;3.93;71.23;104017.97;4977287;28;20212;-67
2022/03/19 01:53:36;;;;;;;18.20;6.57;;;4.10;99.90;;;4.08;71.00;104012.72;4977193;28;20646;-67
2022/03/19 01:56:07;;;;;;;23.17;6.35;;;4.20;99.90;;;3.91;71.43;104013.66;4977260;28;20548;-67
2022/03/19 01:58:37;;;;;;;20.38;6.05;;;4.10;99.90;;;3.95;71.34;104012.53;4977145;28;20223;-67
2022/03/19 02:01:07;;;;;;;15.63;6.82;;;4.10;99.90;;;3.88;71.42;104012.00;4977498;28;20242;-67
2022/03/19 02:03:36;;;;;;;15.93;7.07;;;4.10;99.90;;;3.88;71.65;104020.03;4976993;28;20219;-67
2022/03/19 02:06:07;;;;;;;16.67;6.50;;;4.00;99.90;;;3.87;71.66;104015.63;4977277;28;20196;-67
2022/03/19 02:08:39;;;;;;;14.25;7.60;;;4.00;99.90;;;3.80;72.08;104008.88;4976913;28;20290;-67
2022/03/19 02:11:09;;;;;;;18.58;6.15;;;4.00;99.90;;;3.75;72.07;104008.25;4976912;28;20704;-67
2022/03/19 02:13:38;;;;;;;12.93;5.70;;;3.90;99.90;;;3.78;72.36;104001.84;4976984;28;20275;-67
2022/03/19 02:16:07;;;;;;;16.67;8.07;;;3.90;99.90;;;3.77;72.38;104009.06;4976862;28;20222;-67
2022/03/19 02:18:35;;;;;;;12.20;7.97;;;3.90;99.90;;;3.69;72.74;104003.22;4976907;28;20558;-67
2022/03/19 02:21:05;;;;;;;16.00;6.85;;;3.90;99.90;;;3.51;73.24;103998.84;4976601;28;20747;-67
2022/03/19 02:26:22;;;;;;;21.85;7.70;;;3.70;99.90;;;3.45;73.80;104001.84;4976806;28;20208;-67
2022/03/19 02:28:51;;;;;;;28.65;8.00;;;3.70;99.90;;;3.35;74.22;103992.56;4976859;28;20208;-67
2022/03/19 02:31:20;;;;;;;16.17;7.47;;;3.60;99.90;;;3.52;73.92;103997.03;4976356;28;20294;-67
2022/03/19 02:33:49;;;;;;;19.65;7.80;;;3.60;99.90;;;3.55;74.11;103991.50;4976579;28;20180;-67
2022/03/19 02:36:20;;;;;;;18.42;7.40;;;3.70;99.90;;;3.52;73.96;103981.84;4976493;28;20188;-67
2022/03/19 02:38:51;;;;;;;16.83;7.60;;;3.70;99.90;;;3.56;74.33;103993.25;4976567;28;20226;-67
2022/03/19 02:41:20;;;;;;;21.27;10.00;;;3.70;99.90;;;3.39;74.65;103992.31;4976422;28;20211;-67
2022/03/19 02:43:49;;;;;;;18.02;8.23;;;3.60;99.90;;;3.43;75.02;103998.41;4976279;28;20175;-68
2022/03/19 02:46:17;;;;;;;15.27;7.50;;;3.60;99.90;;;3.42;75.36;103985.94;4976320;28;20187;-66
2022/03/19 02:48:46;;;;;;;19.92;9.30;;;3.60;99.90;;;3.34;75.93;103990.84;4976558;28;20604;-67
2022/03/19 02:51:15;;;;;;;15.60;8.88;;;3.50;99.90;;;3.35;75.96;103985.41;4976262;28;20215;-66
2022/03/19 02:53:44;;;;;;;25.58;8.93;;;3.50;99.90;;;3.24;76.61;103981.56;4976103;28;20191;-67
2022/03/19 02:56:14;;;;;;;22.30;8.88;;;3.50;99.90;;;3.11;77.22;103973.28;4976483;28;20192;-66
2022/03/19 02:58:43;;;;;;;23.15;8.85;;;3.40;99.90;;;3.11;77.19;103977.75;4976217;28;20203;-66
2022/03/19 03:01:12;;;;;;;21.88;9.32;;;3.30;99.90;;;3.14;77.33;103980.31;4976042;28;20310;-66
2022/03/19 03:03:48;;;;;;;21.08;10.02;;;3.30;99.90;;;2.95;77.70;103969.69;4976226;28;20210;-66
2022/03/19 03:06:17;;;;;;;21.40;9.80;;;3.30;99.90;;;3.02;77.82;103977.31;4977243;28;20590;-66
2022/03/19 03:08:46;;;;;;;22.00;10.70;;;3.30;99.90;;;3.10;77.77;103978.75;4976563;28;20231;-67
2022/03/19 03:11:17;;;;;;;20.92;9.65;;;3.20;99.90;;;3.10;77.81;103978.75;4976736;28;20203;-68
2022/03/19 03:13:46;;;;;;;17.63;9.48;;;3.20;99.90;;;2.96;77.63;103972.25;4976644;28;20596;-67
2022/03/19 03:16:15;;;;;;;16.58;10.35;;;3.20;99.90;;;3.02;77.84;103981.78;4976391;28;20276;-67
2022/03/19 03:18:44;;;;;;;17.25;9.43;;;3.20;99.90;;;2.90;77.70;103977.94;4976536;28;20246;-66
2022/03/19 03:21:13;;;;;;;18.70;8.82;;;3.10;99.90;;;2.91;77.63;103982.31;4975725;28;20222;-67
2022/03/19 03:23:41;;;;;;;14.52;8.52;;;3.10;99.90;;;2.98;77.43;103975.72;4975916;28;20195;-66
2022/03/19 03:26:10;;;;;;;17.20;8.77;;;3.10;99.90;;;2.93;77.42;103982.25;4975754;28;20271;-67
2022/03/19 03:28:41;;;;;;;19.67;8.95;;;3.10;99.90;;;2.86;77.35;103981.69;4975368;28;20679;-66
2022/03/19 03:31:09;;;;;;;20.23;7.57;;;3.10;99.90;;;2.85;77.18;103969.28;4975720;28;20581;-67
2022/03/19 03:33:39;;;;;;;19.75;10.65;;;3.10;99.90;;;2.73;77.59;103964.53;4975537;28;20192;-67
2022/03/19 03:36:09;;;;;;;14.10;7.50;;;3.00;99.90;;;2.64;77.92;103970.34;4975763;28;20172;-67
2022/03/19 03:38:40;;;;;;;18.02;8.60;;;2.90;99.90;;;2.66;78.23;103973.81;4975415;28;20653;-67
2022/03/19 03:41:09;;;;;;;20.92;8.68;;;2.90;99.90;;;2.80;77.43;103971.31;4975534;28;20246;-67
2022/03/19 03:43:38;;;;;;;13.27;7.50;;;2.90;99.90;;;2.71;77.41;103971.75;4976734;28;20592;-68
2022/03/19 03:46:08;;;;;;;24.42;8.75;;;2.90;99.90;;;2.66;77.77;103973.81;4977710;28;20225;-67
2022/03/19 03:48:38;;;;;;;18.23;7.95;;;2.80;99.90;;;2.60;77.66;103968.78;4977383;28;20195;-67
2022/03/19 03:51:11;;;;;;;23.10;8.88;;;2.80;99.90;;;2.62;77.85;103962.38;4976670;28;20214;-67
2022/03/19 03:53:41;;;;;;;14.40;8.95;;;2.80;99.90;;;2.64;77.45;103965.00;4974979;28;20186;-67
2022/03/19 03:56:10;;;;;;;17.85;8.95;;;2.80;99.90;;;2.52;77.57;103978.97;4976030;28;20278;-67
2022/03/19 03:58:41;;;;;;;13.85;8.07;;;2.70;99.90;;;2.50;77.68;103965.69;4975410;28;20266;-66
2022/03/19 04:01:11;;;;;;;16.02;7.32;;;2.70;99.90;;;2.53;77.67;103972.66;4975300;28;20211;-67
2022/03/19 04:03:40;;;;;;;16.02;7.65;;;2.70;99.90;;;2.43;77.52;103974.06;4975489;28;20176;-67
2022/03/19 04:06:09;;;;;;;20.90;8.02;;;2.60;99.90;;;2.50;77.56;103978.19;4975999;28;20188;-68
2022/03/19 04:08:38;;;;;;;13.85;7.30;;;2.70;99.90;;;2.58;77.38;103968.84;4976697;28;20200;-67
2022/03/19 04:11:07;;;;;;;23.20;6.43;;;2.70;99.90;;;2.46;77.56;103976.59;4975946;28;20221;-68
2022/03/19 04:13:36;;;;;;;19.27;7.85;;;2.70;99.90;;;2.43;77.48;103987.44;4976684;28;20282;-67
2022/03/19 04:16:05;;;;;;;14.60;8.50;;;2.60;99.90;;;2.37;77.71;103974.38;4975950;28;20192;-67
2022/03/19 04:18:36;;;;;;;14.18;7.80;;;2.60;99.90;;;2.41;77.70;103981.31;4975783;28;20202;-67
2022/03/19 04:21:05;;;;;;;12.82;6.55;;;2.60;99.90;;;2.38;77.86;103973.41;5005952;23;20250;-73
2022/03/19 04:23:35;;;;;;;8.85;6.30;;;2.50;99.90;;;2.31;77.89;103972.88;4974530;28;20171;-74
2022/03/19 04:26:05;;;;;;;11.95;6.95;;;2.50;99.90;;;2.23;77.91;103966.16;4974281;28;20168;-74
2022/03/19 04:28:34;;;;;;;19.50;7.60;;;2.40;99.90;;;2.15;78.34;103967.38;4974356;28;20199;-73
2022/03/19 04:31:04;;;;;;;20.80;7.78;;;2.40;99.90;;;2.12;78.23;103972.88;4974267;28;20719;-73
2022/03/19 04:33:35;;;;;;;18.17;7.20;;;2.40;99.90;;;2.16;78.32;103963.78;4973062;28;20206;-74
2022/03/19 04:38:53;;;;;;;19.65;7.25;;;2.40;99.90;;;2.05;78.21;103957.19;4974164;28;20176;-75
2022/03/19 04:41:22;;;;;;;16.75;7.10;;;2.30;99.90;;;2.01;78.78;103955.63;4974293;28;20224;-74
2022/03/19 04:43:51;;;;;;;16.27;9.30;;;2.20;99.90;;;2.01;78.65;103959.16;4956806;28;20199;-74
2022/03/19 04:46:20;;;;;;;15.07;7.68;;;2.20;99.90;;;1.91;78.96;103957.84;4974751;28;20175;-74
2022/03/19 04:48:52;;;;;;;14.23;7.25;;;2.10;99.90;;;1.93;79.28;103955.13;4974229;28;20202;-74
2022/03/19 04:51:27;;;;;;;11.82;7.50;;;2.20;99.90;;;2.02;79.01;103960.03;4957190;28;20250;-75
2022/03/19 04:53:56;;;;;;;15.20;7.07;;;2.10;99.90;;;1.94;79.15;103956.81;4974502;28;20576;-73
2022/03/19 04:56:28;;;;;;;13.65;7.68;;;2.10;99.90;;;1.82;79.23;103952.94;4956751;28;20685;-74
2022/03/19 04:59:00;;;;;;;20.15;7.57;;;2.10;99.90;;;1.84;79.39;103956.38;4974057;28;20172;-73
2022/03/19 05:01:32;;;;;;;15.05;7.72;;;2.00;99.90;;;1.90;79.51;103964.13;4973950;28;20677;-73
2022/03/19 05:04:03;;;;;;;19.20;8.10;;;2.10;99.90;;;1.85;79.50;103963.47;4974249;28;20239;-73
2022/03/19 05:06:32;;;;;;;19.92;8.45;;;2.00;99.90;;;1.80;79.78;103960.13;4973694;28;20183;-74
2022/03/19 05:11:47;;;;;;;14.57;7.80;;;2.00;99.90;;;1.88;79.36;103955.34;4974088;28;20176;-73
2022/03/19 05:14:16;;;;;;;16.23;9.25;;;2.00;99.90;;;1.81;79.31;103955.66;4972423;28;20191;-74
2022/03/19 05:16:45;;;;;;;20.50;11.07;;;2.00;99.90;;;1.75;79.98;103956.81;4973740;28;20180;-73
2022/03/19 05:19:15;;;;;;;19.20;9.20;;;1.90;99.90;;;1.81;79.58;103955.66;4973632;28;20318;-75
2022/03/19 05:21:44;;;;;;;14.80;9.05;;;2.00;99.90;;;1.76;79.74;103955.88;4972643;28;20222;-73
2022/03/19 05:24:13;;;;;;;23.33;8.18;;;1.90;99.90;;;1.72;79.76;103960.50;4973945;28;20191;-74
2022/03/19 05:26:41;;;;;;;23.50;8.82;;;1.90;99.90;;;1.79;79.59;103966.44;4973808;28;20611;-73
2022/03/19 05:29:12;;;;;;;9.85;7.88;;;1.90;99.90;;;1.83;79.34;103965.38;4973881;28;20713;-73
2022/03/19 05:31:46;;;;;;;14.05;8.23;;;2.00;99.90;;;1.84;79.31;103959.06;4974601;28;20246;-73
2022/03/19 05:34:32;;;;;;;13.82;7.97;;;2.00;99.90;;;1.82;79.33;103960.94;4976182;28;20543;-74
2022/03/19 05:37:03;;;;;;;8.80;7.63;;;2.00;99.90;;;1.82;79.50;103952.94;4974972;28;20721;-74
2022/03/19 05:39:33;;;;;;;21.38;9.27;;;2.00;99.90;;;1.95;78.82;103955.91;4976515;28;20214;-74
2022/03/19 05:42:03;;;;;;;12.13;7.60;;;2.00;99.90;;;1.94;78.77;103955.03;4987174;28;20184;-73
2022/03/19 05:44:32;;;;;;;17.15;8.38;;;2.00;99.90;;;1.87;79.06;103961.59;4992070;28;20230;-74
2022/03/19 05:47:02;;;;;;;19.40;8.48;;;2.00;99.90;;;1.87;79.17;103956.28;4979988;28;20231;-74
2022/03/19 05:49:32;;;;;;;14.52;7.20;;;2.00;99.90;;;2.04;78.50;103961.66;4974405;28;20219;-73
2022/03/19 05:52:01;;;;;;;25.35;7.70;;;2.10;99.90;;;2.00;78.36;103962.75;4974857;28;20649;-74
2022/03/19 05:54:30;;;;;;;29.80;7.28;;;2.10;99.90;;;2.10;78.31;103969.41;4974564;28;20222;-74
2022/03/19 05:56:59;;;;;;;14.68;6.90;;;2.20;99.90;;;2.19;78.05;103974.31;4977032;28;20215;-72
2022/03/19 05:59:29;;;;;;;18.80;9.10;;;2.20;99.90;;;2.13;78.17;103969.25;4978975;28;20269;-74
2022/03/19 06:01:58;;;;;;;15.18;7.90;;;2.20;99.90;;;2.18;77.76;103977.91;4984196;28;20203;-73
2022/03/19 06:04:27;;;;;;;17.40;8.15;;;2.30;99.90;;;2.23;77.58;103975.03;4981797;28;20187;-73
2022/03/19 06:06:58;;;;;;;14.75;8.15;;;2.30;99.90;;;2.25;77.56;103985.66;4973051;28;20202;-73
2022/03/19 06:09:28;;;;;;;20.63;7.63;;;2.30;99.90;;;2.32;77.48;103985.28;4973476;28;20689;-73
2022/03/19 06:11:57;;;;;;;20.25;6.85;;;2.40;99.90;;;2.41;77.17;103992.00;4973722;28;20211;-73
2022/03/19 06:14:26;;;;;;;13.32;7.22;;;2.50;99.90;;;2.51;76.94;103986.13;4974669;28;20217;-73
2022/03/19 06:16:55;;;;;;;14.50;10.00;;;2.50;99.90;;;2.62;76.30;103978.44;4974786;28;20172;-73
2022/03/19 06:19:24;;;;;;;14.63;7.45;;;2.70;99.90;;;2.75;75.98;103977.84;4978380;28;20208;-74
2022/03/19 06:21:54;;;;;;;12.50;5.00;;;2.70;99.90;;;2.76;76.09;103972.41;4977316;28;20200;-74
2022/03/19 06:24:24;;;;;;;14.75;5.95;;;2.80;99.90;;;2.71;76.12;103971.75;4978273;28;20251;-73
2022/03/19 06:26:53;;;;;;;14.00;5.60;;;2.80;99.90;;;2.78;75.85;103967.84;4977389;28;20172;-74
2022/03/19 06:29:23;;;;;;;23.45;6.10;;;2.80;99.90;;;2.82;75.78;103974.78;4960328;28;20215;-74
2022/03/19 06:31:52;;;;;;;15.43;6.18;;;2.90;99.90;;;2.89;75.58;103976.22;4961650;28;20191;-74
2022/03/19 06:34:21;;;;;;;13.32;5.75;;;2.90;99.90;;;2.94;75.30;103974.16;4976727;28;20274;-73
2022/03/19 06:39:38;;;;;;;13.23;5.43;;;3.00;99.90;;;3.14;74.80;103978.50;4976969;28;20290;-74
2022/03/19 06:42:07;;;;;;;16.58;5.10;;;3.10;99.90;;;3.17;74.62;103980.13;4977013;28;20192;-73
2022/03/19 06:44:38;;;;;;;9.98;5.70;;;3.20;99.90;;;3.25;74.66;103975.25;4976544;28;20215;-75
2022/03/19 06:47:08;;;;;;;12.63;7.15;;;3.30;99.90;;;3.29;74.47;103968.81;4976642;28;20195;-74
2022/03/19 06:49:37;;;;;;;18.42;5.35;;;3.30;99.90;;;3.36;74.11;103971.06;4976343;28;20212;-74
2022/03/19 06:52:07;;;;;;;15.13;6.88;;;3.40;99.90;;;3.50;74.01;103968.53;4976671;28;20635;-74
2022/03/19 06:54:37;;;;;;;17.88;6.10;;;3.50;99.90;;;3.46;73.90;103968.78;4976597;28;20176;-73
2022/03/19 06:57:06;;;;;;;16.27;6.05;;;3.50;99.90;;;3.59;73.62;103964.47;4976736;28;20195;-74
2022/03/19 06:59:41;;;;;;;14.80;4.70;;;3.60;99.90;;;3.59;73.55;103960.94;4976743;28;20207;-74
2022/03/19 07:02:10;;;;;;;11.00;5.03;;;3.60;99.90;;;3.68;73.29;103960.47;4976349;28;20266;-74
2022/03/19 07:04:39;;;;;;;6.82;4.22;;;3.70;99.90;;;3.74;73.29;103958.31;4976393;28;20640;-73
2022/03/19 07:07:08;;;;;;;7.82;4.82;;;3.80;99.90;;;3.90;73.06;103959.22;4976519;28;20704;-74
2022/03/19 07:09:39;;;;;;;15.63;8.13;;;3.90;99.90;;;4.04;72.59;103962.94;4976665;28;20677;-74
2022/03/19 07:12:11;;;;;;;10.48;7.18;;;4.00;99.90;;;4.06;72.28;103969.94;4976300;28;20182;-73
2022/03/19 07:14:40;;;;;;;15.18;7.93;;;4.10;99.90;;;4.16;71.98;103952.41;4959349;28;20676;-74
2022/03/19 07:17:09;;;;;;;13.23;5.53;;;4.20;99.90;;;4.24;71.98;103962.69;4976688;28;20219;-74
2022/03/19 07:19:39;;;;;;;71.03;40.35;;;4.20;99.90;;;4.35;71.55;103952.22;4976359;28;20223;-73
2022/03/19 07:22:08;;;;;;;19.48;11.48;;;4.30;99.90;;;4.34;71.74;103950.50;4976090;28;20199;-73
2022/03/19 07:24:38;;;;;;;14.90;8.30;;;4.40;99.90;;;4.51;70.93;103950.38;4976102;28;20631;-75
2022/03/19 07:27:07;;;;;;;97.75;47.72;;;4.50;99.90;;;4.73;70.27;103953.56;4975708;28;20186;-74
2022/03/19 07:29:36;;;;;;;33.38;16.52;;;4.70;99.90;;;4.80;70.22;103944.16;4975036;28;20211;-74
2022/03/19 07:32:06;;;;;;;12.57;8.13;;;4.70;99.90;;;4.92;69.63;103949.78;4958756;28;20281;-75
2022/03/19 07:34:39;;;;;;;16.48;5.10;;;4.90;99.90;;;5.11;68.99;103942.34;4975700;28;20186;-74
2022/03/19 07:37:08;;;;;;;11.25;6.13;;;5.00;99.90;;;5.20;69.23;103942.66;4958335;28;20196;-73
2022/03/19 07:39:38;;;;;;;11.40;3.50;;;5.10;99.90;;;5.41;68.23;103939.63;4975243;28;20585;-75
2022/03/19 07:42:07;;;;;;;10.27;4.05;;;5.30;99.90;;;5.54;67.83;103936.06;4975116;28;20199;-74
2022/03/19 07:44:38;;;;;;;22.65;12.20;;;5.50;99.90;;;5.47;68.17;103945.44;4975372;28;20187;-73
2022/03/19 07:47:07;;;;;;;10.65;3.90;;;5.50;99.80;;;5.54;67.35;103936.06;4974909;28;20534;-73
2022/03/19 07:49:36;;;;;;;11.40;3.90;;;5.60;98.10;;;5.63;67.02;103923.88;4975251;28;20230;-74
2022/03/19 07:52:06;;;;;;;17.75;4.28;;;5.60;97.60;;;5.60;67.32;103929.44;4975301;28;20199;-74
2022/03/19 07:54:36;;;;;;;28.77;20.92;;;5.60;97.50;;;5.68;67.28;103935.19;4975310;28;20431;-74
2022/03/19 07:57:07;;;;;;;14.02;5.85;;;5.60;97.60;;;5.89;66.87;103931.19;4975371;28;20231;-74
2022/03/19 07:59:37;;;;;;;12.60;5.47;;;5.80;96.40;;;6.03;65.55;103933.00;4975041;28;20215;-74
2022/03/19 08:02:06;;;;;;;26.25;10.85;;;6.00;94.40;;;6.12;65.93;103937.78;4974913;28;20176;-74
2022/03/19 08:04:35;;;;;;;16.45;4.65;;;6.10;92.90;;;6.24;64.62;103942.38;4974881;28;20202;-75
2022/03/19 08:07:04;;;;;;;22.58;12.13;;;6.20;89.50;;;6.38;64.39;103931.56;4974923;28;20180;-74
2022/03/19 08:09:33;;;;;;;21.02;10.90;;;6.30;86.60;;;6.45;64.52;103935.56;4973728;28;20759;-74
2022/03/19 08:12:02;;;;;;;20.00;10.15;;;6.40;83.00;;;6.59;64.47;103934.63;4975375;28;20203;-73
2022/03/19 08:14:33;;;;;;;15.13;8.35;;;6.50;82.80;;;6.83;63.32;103934.81;4974222;28;20327;-74
2022/03/19 08:17:04;;;;;;;12.15;5.75;;;6.70;76.70;;;6.57;63.71;103933.03;4976861;28;20248;-74
2022/03/19 08:19:33;;;;;;;9.80;6.47;;;6.60;71.80;;;6.76;63.63;103939.75;4981138;28;20301;-73
2022/03/19 08:22:23;;;;;;;18.52;9.63;;;6.70;71.70;;;7.01;62.84;103944.34;4978162;28;20191;-73
2022/03/19 08:24:53;;;;;;;15.57;5.68;;;6.90;68.40;;;7.26;61.73;103941.66;4978899;28;20270;-74
2022/03/19 08:27:23;;;;;;;18.77;8.32;;;7.10;60.20;;;7.26;61.18;103943.53;4980597;28;20195;-72
2022/03/19 08:29:54;;;;;;;16.00;6.05;;;7.20;53.40;;;7.19;61.15;103943.06;4979310;28;20568;-73
2022/03/19 08:32:23;;;;;;;22.15;6.85;;;7.20;50.50;;;7.22;61.46;103948.25;4977406;28;20204;-73
2022/03/19 08:34:52;;;;;;;6.53;2.67;;;7.20;50.90;;;7.30;61.47;103934.25;4976997;28;20234;-73
2022/03/19 08:37:21;;;;;;;11.40;4.72;;;7.30;51.90;;;7.41;61.16;103947.81;4975352;28;20250;-74
2022/03/19 08:42:37;;;;;;;11.63;3.75;;;7.30;49.10;;;7.23;61.57;103933.81;4972853;28;20242;-72
2022/03/19 08:45:08;;;;;;;13.55;6.95;;;7.30;49.30;;;7.34;60.87;103938.44;4973888;28;20191;-75
2022/03/19 08:47:37;;;;;;;17.27;4.45;;;7.40;46.80;;;7.27;60.94;103937.13;4972561;28;20187;-73
2022/03/19 08:50:08;;;;;;;12.15;9.45;;;7.30;46.20;;;7.40;60.82;103930.81;4973845;28;20208;-73
2022/03/19 08:52:37;;;;;;;17.27;8.35;;;7.30;47.30;;;7.47;60.79;103919.56;4973912;28;20218;-74
2022/03/19 08:55:07;;;;;;;14.30;6.25;;;7.40;46.10;;;7.64;60.31;103917.44;4956300;28;20230;-73
2022/03/19 08:57:37;;;;;;;16.70;7.32;;;7.50;45.00;;;7.90;59.96;103920.91;4974182;28;20180;-73
2022/03/19 09:00:09;;;;;;;10.88;6.18;;;7.70;44.00;;;7.97;59.65;103914.13;4973317;28;20277;-73
2022/03/19 09:02:43;;;;;;;10.70;4.80;;;7.90;42.10;;;8.04;59.03;103917.22;4973354;28;20176;-72
2022/03/19 09:05:13;;;;;;;12.93;5.68;;;8.00;38.30;;;8.10;58.52;103920.31;4956498;28;20199;-73
2022/03/19 09:07:42;;;;;;;7.03;3.85;;;8.00;35.90;;;8.01;58.63;103906.66;4972724;28;20192;-73
2022/03/19 09:10:11;;;;;;;10.63;5.03;;;8.00;33.80;;;8.02;58.52;103911.09;4956602;28;20693;-74
2022/03/19 09:12:41;;;;;;;10.85;5.25;;;8.00;33.40;;;8.24;58.15;103911.22;4973605;28;20207;-73
2022/03/19 09:15:13;;;;;;;11.18;7.35;;;8.10;33.40;;;8.33;57.25;103920.50;4972333;28;20255;-73
2022/03/19 09:17:43;;;;;;;5.90;3.38;;;8.30;30.00;;;8.26;57.40;103915.53;4975827;28;20176;-73
2022/03/19 09:20:12;;;;;;;11.50;4.18;;;8.30;29.20;;;8.28;57.31;103902.78;4977001;28;20281;-74
2022/03/19 09:22:41;;;;;;;8.95;3.42;;;8.30;29.00;;;8.53;57.07;103901.81;4975564;28;20187;-73
2022/03/19 09:25:10;;;;;;;10.48;3.42;;;8.40;29.30;;;8.58;56.71;103899.63;4958016;28;20468;-74
2022/03/19 09:27:40;;;;;;;7.20;3.72;;;8.50;28.10;;;8.67;56.37;103892.69;4957585;28;20242;-74
2022/03/19 09:30:12;;;;;;;4.80;3.25;;;8.50;26.80;;;8.95;55.79;103895.00;4974908;28;20242;-74
2022/03/19 09:32:41;;;;;;;6.30;3.58;;;8.80;26.30;;;9.06;55.12;103888.72;4975158;28;20199;-74
2022/03/19 09:35:11;;;;;;;11.07;3.33;;;9.00;24.10;;;9.34;54.18;103892.84;4974811;28;20230;-73
2022/03/19 09:37:40;;;;;;;7.28;3.53;;;9.10;22.60;;;9.02;54.51;103882.72;4977651;28;20198;-73
2022/03/19 09:40:10;;;;;;;5.47;2.47;;;9.10;20.90;;;9.05;54.24;103887.03;4975570;28;20748;-74
2022/03/19 09:42:48;;;;;;;9.57;3.10;;;9.00;20.30;;;9.21;53.53;103892.06;4975146;28;20528;-74
2022/03/19 09:45:20;;;;;;;5.55;2.75;;;9.10;19.40;;;9.23;53.68;103891.00;4975557;28;20176;-74
2022/03/19 09:47:51;;;;;;;5.85;2.88;;;9.20;19.00;;;9.27;52.25;103880.78;4975829;28;20198;-74
2022/03/19 09:50:21;;;;;;;16.38;2.78;;;9.20;17.20;;;9.27;52.27;103869.97;4958652;28;20295;-74
2022/03/19 09:52:53;;;;;;;13.77;3.47;;;9.20;16.20;;;9.51;52.18;103885.13;4974967;28;20258;-73
2022/03/19 09:55:28;;;;;;;6.30;2.50;;;9.30;16.30;;;9.64;51.91;103890.38;4981382;28;20179;-72
2022/03/19 09:57:58;;;;;;;5.15;2.97;;;9.50;15.60;;;9.91;51.02;103892.72;4979499;28;20230;-73
2022/03/19 10:00:28;;;;;;;8.25;4.60;;;9.70;14.80;;;9.93;50.98;103888.88;4978229;28;20215;-74
2022/03/19 10:02:59;;;;;;;5.57;3.13;;;9.80;14.00;;;9.99;50.43;103882.97;4977732;28;20200;-73
2022/03/19 10:08:39;;;;;;;7.40;2.70;;;9.80;12.50;;;9.65;51.25;103875.88;4977372;28;20194;-72
2022/03/19 10:11:11;;;;;;;6.88;3.10;;;9.70;12.80;;;9.77;51.61;103885.72;4991866;23;20226;-69
2022/03/19 10:13:44;;;;;;;7.65;2.45;;;9.70;13.60;;;9.58;51.67;103885.50;4977416;28;20203;-71
2022/03/19 10:16:22;;;;;;;12.02;4.00;;;9.60;13.00;;;9.62;51.45;103876.13;4977107;28;20190;-69
2022/03/19 10:18:58;;;;;;;9.80;2.80;;;9.60;12.80;;;9.69;50.90;103885.47;4977099;28;20203;-69
2022/03/19 10:21:28;;;;;;;7.60;3.25;;;9.60;12.30;;;9.49;51.57;103891.59;4979363;28;20214;-69
2022/03/19 10:23:59;;;;;;;6.15;3.90;;;9.50;12.40;;;9.45;51.76;103873.91;5020750;23;20298;-70
2022/03/19 10:26:30;;;;;;;11.52;3.95;;;9.50;12.90;;;9.71;51.40;103885.34;4975739;28;20272;-72
2022/03/19 10:29:01;;;;;;;7.80;3.60;;;9.60;12.80;;;9.73;51.87;103883.41;4977656;28;20195;-71
2022/03/19 10:31:34;;;;;;;15.43;3.72;;;9.60;13.20;;;9.87;51.83;103875.88;4977302;28;20259;-72
2022/03/19 10:34:05;;;;;;;6.40;3.25;;;9.70;13.30;;;10.18;50.41;103870.66;4977357;28;20215;-72
2022/03/19 10:36:36;;;;;;;9.25;3.60;;;10.00;11.20;;;10.06;49.90;103868.94;4977394;28;20641;-73
2022/03/19 10:39:08;;;;;;;13.68;4.00;;;10.00;9.90;;;10.07;50.06;103863.38;4977327;28;20172;-73
2022/03/19 10:41:38;;;;;;;5.97;3.90;;;10.00;9.90;;;10.03;50.33;103870.03;4972254;28;20207;-72
2022/03/19 10:44:16;;;;;;;9.00;4.35;;;10.00;9.90;;;10.22;49.93;103866.69;4972237;28;20680;-73
2022/03/19 10:46:49;;;;;;;11.65;5.43;;;10.10;9.80;;;10.20;49.63;103860.56;4970602;28;20653;-72
2022/03/19 10:49:23;;;;;;;6.68;4.05;;;10.20;9.00;;;10.27;49.78;103867.16;4965737;28;20184;-71